Time;durP1;ratioP1;P1;durP2;ratioP2;P2;SDS_P1;SDS_P2;PMS_P1;PMS_P2;Temp;Humidity;BMP_temperature;BMP_pressure;BME280_temperature;BME280_humidity;BME280_pressure;Samples;Min_cycle;Max_cycle;Signal;HPM_P1;HPM_P2
2023/07/29 00:00:47;;;;;;;7.05;6.43;;;19.60;99.90;;;;;;6211778;23;20136;-74
2023/07/29 00:03:13;;;;;;;7.90;7.20;;;19.60;99.90;;;;;;6212709;23;20068;-74
2023/07/29 00:05:38;;;;;;;8.50;6.90;;;19.50;99.90;;;;;;6213573;23;20008;-74
2023/07/29 00:08:04;;;;;;;7.32;6.60;;;19.50;99.90;;;;;;6213060;23;20001;-74
2023/07/29 00:10:36;;;;;;;7.20;6.50;;;19.50;99.90;;;;;;6213285;23;20012;-74
2023/07/29 00:13:02;;;;;;;8.63;6.72;;;19.60;99.90;;;;;;6213231;23;20011;-74
2023/07/29 00:15:28;;;;;;;7.13;6.43;;;19.60;99.90;;;;;;6213450;23;19997;-75
2023/07/29 00:17:53;;;;;;;7.10;6.40;;;19.50;99.90;;;;;;6211508;23;20000;-74
2023/07/29 00:20:19;;;;;;;7.88;6.63;;;19.50;99.90;;;;;;6212949;23;20012;-75
2023/07/29 00:22:44;;;;;;;8.27;6.65;;;19.50;99.90;;;;;;6212029;23;20001;-75
2023/07/29 00:25:10;;;;;;;8.50;6.65;;;19.50;99.90;;;;;;6212403;23;20011;-75
2023/07/29 00:27:35;;;;;;;7.95;6.30;;;19.50;99.90;;;;;;6212912;23;20000;-75
2023/07/29 00:30:01;;;;;;;11.60;7.05;;;19.40;99.90;;;;;;6211556;23;20001;-75
2023/07/29 00:32:30;;;;;;;8.00;7.30;;;19.40;99.90;;;;;;6212420;23;20084;-75
2023/07/29 00:34:56;;;;;;;8.43;7.22;;;19.30;99.90;;;;;;6211340;23;20330;-75
2023/07/29 00:37:22;;;;;;;9.45;7.25;;;19.30;99.90;;;;;;6213082;23;20000;-75
2023/07/29 00:39:47;;;;;;;8.52;7.25;;;19.20;99.90;;;;;;6213346;23;20028;-75
2023/07/29 00:42:13;;;;;;;8.57;7.78;;;19.20;99.90;;;;;;6212739;23;20091;-75
2023/07/29 00:44:38;;;;;;;7.78;7.07;;;19.20;99.90;;;;;;6213212;23;20194;-76
2023/07/29 00:47:05;;;;;;;8.85;7.95;;;19.20;99.90;;;;;;6212325;23;20365;-75
2023/07/29 00:49:32;;;;;;;8.45;7.32;;;19.10;99.90;;;;;;6212579;23;19997;-75
2023/07/29 00:51:58;;;;;;;9.05;8.15;;;19.10;99.90;;;;;;6211266;23;20012;-75
2023/07/29 00:54:23;;;;;;;9.63;7.65;;;19.10;99.90;;;;;;6212773;23;20017;-75
2023/07/29 00:56:49;;;;;;;8.18;7.35;;;19.10;99.90;;;;;;6213470;23;20492;-75
2023/07/29 00:59:15;;;;;;;9.80;8.43;;;19.00;99.90;;;;;;6212379;23;20036;-75
2023/07/29 01:01:41;;;;;;;10.07;8.80;;;19.00;99.90;;;;;;6186082;23;20007;-75
2023/07/29 01:04:06;;;;;;;8.75;7.30;;;18.90;99.90;;;;;;6212455;23;20450;-75
2023/07/29 01:06:37;;;;;;;10.00;8.65;;;19.00;99.90;;;;;;6212927;23;20010;-75
2023/07/29 01:09:07;;;;;;;8.98;8.07;;;19.00;99.90;;;;;;6212437;23;20032;-75
2023/07/29 01:11:48;;;;;;;9.45;8.55;;;19.10;99.90;;;;;;6186260;23;20009;-75
2023/07/29 01:14:36;;;;;;;9.32;8.32;;;19.10;99.90;;;;;;6212364;23;20001;-75
2023/07/29 01:17:07;;;;;;;9.13;8.23;;;19.20;99.90;;;;;;6185534;23;20047;-75
2023/07/29 01:19:57;;;;;;;10.15;8.43;;;19.30;99.90;;;;;;6213075;23;20000;-75
2023/07/29 01:22:24;;;;;;;9.00;8.05;;;19.30;99.90;;;;;;6185932;23;20334;-75
2023/07/29 01:24:49;;;;;;;11.02;8.48;;;19.40;99.90;;;;;;6212846;23;20004;-75
2023/07/29 01:27:15;;;;;;;10.98;9.80;;;19.40;99.90;;;;;;6212266;23;20433;-75
2023/07/29 01:29:41;;;;;;;8.95;8.10;;;19.40;99.90;;;;;;6212316;23;20039;-75
2023/07/29 01:32:34;;;;;;;10.50;9.32;;;19.50;99.90;;;;;;6212376;23;20058;-75
2023/07/29 01:35:35;;;;;;;9.97;8.97;;;19.50;99.90;;;;;;6212591;23;20067;-74
2023/07/29 01:38:08;;;;;;;9.30;7.90;;;19.50;99.90;;;;;;6201964;23;20091;-75
2023/07/29 01:40:34;;;;;;;9.82;8.25;;;19.50;99.90;;;;;;6212736;23;20076;-75
2023/07/29 01:43:00;;;;;;;10.48;9.38;;;19.60;99.90;;;;;;6212376;23;20005;-75
2023/07/29 01:45:25;;;;;;;10.20;9.20;;;19.60;99.90;;;;;;6211778;23;19992;-75
2023/07/29 01:47:52;;;;;;;11.65;9.55;;;19.60;99.90;;;;;;6212690;23;20028;-75
2023/07/29 01:50:17;;;;;;;10.32;9.30;;;19.60;99.90;;;;;;6211938;23;20549;-75
2023/07/29 01:52:43;;;;;;;10.07;9.07;;;19.70;99.90;;;;;;6212233;23;20056;-75
2023/07/29 01:55:08;;;;;;;9.50;8.57;;;19.70;99.90;;;;;;6212054;23;20008;-75
2023/07/29 01:57:34;;;;;;;11.02;9.88;;;19.70;99.90;;;;;;6212450;23;20008;-75
2023/07/29 02:00:00;;;;;;;10.02;9.02;;;19.70;99.90;;;;;;6211718;23;20331;-75
2023/07/29 02:02:25;;;;;;;10.73;9.38;;;19.80;99.90;;;;;;6212371;23;20005;-75
2023/07/29 02:04:52;;;;;;;12.65;9.40;;;19.80;99.90;;;;;;6212514;23;20008;-75
2023/07/29 02:07:19;;;;;;;9.32;8.43;;;19.80;99.90;;;;;;6211599;23;20391;-75
2023/07/29 02:09:44;;;;;;;9.93;8.80;;;19.80;99.90;;;;;;6212474;23;19997;-75
2023/07/29 02:12:10;;;;;;;10.27;9.25;;;19.90;99.90;;;;;;6184895;23;20012;-75
2023/07/29 02:14:36;;;;;;;9.93;8.35;;;19.90;99.90;;;;;;6211854;23;20071;-75
2023/07/29 02:17:01;;;;;;;9.43;8.45;;;19.90;99.90;;;;;;6212066;23;20060;-75
2023/07/29 02:19:27;;;;;;;10.10;9.07;;;19.90;99.90;;;;;;6212407;23;20067;-75
2023/07/29 02:21:52;;;;;;;10.15;9.07;;;19.90;99.90;;;;;;6212355;23;20055;-75
2023/07/29 02:24:18;;;;;;;10.25;9.20;;;19.90;99.90;;;;;;6211827;23;20446;-75
2023/07/29 02:26:44;;;;;;;11.43;10.32;;;20.00;99.90;;;;;;6212291;23;19997;-75
2023/07/29 02:29:09;;;;;;;11.32;10.05;;;20.00;99.90;;;;;;6211555;23;20005;-75
2023/07/29 02:31:37;;;;;;;10.63;9.52;;;20.00;99.90;;;;;;6212120;23;20375;-75
2023/07/29 02:34:03;;;;;;;12.35;10.98;;;20.00;99.90;;;;;;6185258;23;20005;-75
2023/07/29 02:36:28;;;;;;;11.85;10.77;;;20.00;99.90;;;;;;6212137;23;20326;-75
2023/07/29 02:38:54;;;;;;;12.23;11.07;;;20.00;99.90;;;;;;6212247;23;20445;-75
2023/07/29 02:41:20;;;;;;;12.68;10.73;;;20.00;99.90;;;;;;6211698;23;20028;-75
2023/07/29 02:43:49;;;;;;;9.93;8.93;;;20.00;99.90;;;;;;6211716;23;19997;-75
2023/07/29 02:46:14;;;;;;;12.90;11.60;;;20.00;99.90;;;;;;6211366;23;20000;-75
2023/07/29 02:48:42;;;;;;;10.93;9.63;;;20.00;99.90;;;;;;6212397;23;20055;-74
2023/07/29 02:51:07;;;;;;;11.13;10.05;;;20.00;99.90;;;;;;6211449;23;20016;-75
2023/07/29 02:53:33;;;;;;;13.90;11.82;;;20.00;99.90;;;;;;6211854;23;20012;-75
2023/07/29 02:55:59;;;;;;;11.27;10.18;;;20.00;99.90;;;;;;6211755;23;20072;-75
2023/07/29 02:58:26;;;;;;;10.18;9.15;;;20.00;99.90;;;;;;6211068;23;20035;-75
2023/07/29 03:00:51;;;;;;;10.48;9.52;;;20.00;99.90;;;;;;6212028;23;20449;-75
2023/07/29 03:03:18;;;;;;;10.93;8.38;;;20.00;99.90;;;;;;6211368;23;20001;-75
2023/07/29 03:05:44;;;;;;;9.82;8.93;;;20.00;99.90;;;;;;6211897;23;20468;-76
2023/07/29 03:08:10;;;;;;;10.38;9.05;;;19.90;99.90;;;;;;6211437;23;20031;-76
2023/07/29 03:10:36;;;;;;;9.85;8.85;;;19.90;99.90;;;;;;6211807;23;20005;-75
2023/07/29 03:13:02;;;;;;;8.95;8.05;;;19.90;99.90;;;;;;6213197;23;20387;-75
2023/07/29 03:15:27;;;;;;;10.85;8.40;;;19.80;99.90;;;;;;6213776;23;20051;-75
2023/07/29 03:17:53;;;;;;;9.43;7.82;;;19.80;99.90;;;;;;6214375;23;20420;-75
2023/07/29 03:20:19;;;;;;;11.40;7.82;;;19.80;99.90;;;;;;6213546;23;20373;-76
2023/07/29 03:22:45;;;;;;;8.93;6.93;;;19.80;99.90;;;;;;6214244;23;20011;-76
2023/07/29 03:25:11;;;;;;;7.93;7.10;;;19.80;99.90;;;;;;6186711;23;20784;-75
2023/07/29 03:27:36;;;;;;;7.15;6.30;;;19.80;99.90;;;;;;6213459;23;20008;-75
2023/07/29 03:30:03;;;;;;;6.85;6.25;;;19.70;99.90;;;;;;6213409;23;20008;-75
2023/07/29 03:32:29;;;;;;;6.25;5.65;;;19.70;99.90;;;;;;6213913;23;20435;-75
2023/07/29 03:34:55;;;;;;;6.65;5.13;;;19.70;99.90;;;;;;6213732;23;20005;-75
2023/07/29 03:37:21;;;;;;;7.15;5.43;;;19.70;99.90;;;;;;6212204;23;20001;-75
2023/07/29 03:39:47;;;;;;;6.47;5.88;;;19.60;99.90;;;;;;6211892;23;20003;-75
2023/07/29 03:42:12;;;;;;;6.25;4.35;;;19.60;99.90;;;;;;6211532;23;20000;-75
2023/07/29 03:44:39;;;;;;;6.35;4.93;;;19.50;99.90;;;;;;6213154;23;20008;-75
2023/07/29 03:47:05;;;;;;;6.00;4.90;;;19.50;99.90;;;;;;6211960;23;20026;-76
2023/07/29 03:49:31;;;;;;;5.68;5.18;;;19.40;99.90;;;;;;6213869;23;20076;-76
2023/07/29 03:51:56;;;;;;;6.07;5.07;;;19.40;99.90;;;;;;6213866;23;20036;-76
2023/07/29 03:54:22;;;;;;;9.45;5.93;;;19.40;99.90;;;;;;6212718;23;20019;-76
2023/07/29 03:56:48;;;;;;;5.10;4.60;;;19.30;99.90;;;;;;6213907;23;20379;-75
2023/07/29 03:59:13;;;;;;;4.55;4.15;;;19.30;99.90;;;;;;6212996;23;20007;-75
2023/07/29 04:01:39;;;;;;;5.55;4.63;;;19.30;99.90;;;;;;6213938;23;20079;-75
2023/07/29 04:04:05;;;;;;;4.60;4.20;;;19.30;99.90;;;;;;6212495;23;20004;-75
2023/07/29 04:06:30;;;;;;;5.50;4.40;;;19.30;99.90;;;;;;6213468;23;20054;-75
2023/07/29 04:08:56;;;;;;;4.30;3.65;;;19.20;99.90;;;;;;6212668;23;20440;-75
2023/07/29 04:11:22;;;;;;;6.88;4.10;;;19.20;99.90;;;;;;6212741;23;20092;-74
2023/07/29 04:13:48;;;;;;;4.50;4.03;;;19.20;99.90;;;;;;6212753;23;19997;-75
2023/07/29 04:16:13;;;;;;;3.75;3.25;;;19.20;99.90;;;;;;6212196;23;20324;-75
2023/07/29 04:18:39;;;;;;;4.80;4.30;;;19.20;99.90;;;;;;6213559;23;20095;-75
2023/07/29 04:21:04;;;;;;;4.45;3.65;;;19.10;99.90;;;;;;6186510;23;20015;-75
2023/07/29 04:23:30;;;;;;;5.45;4.28;;;19.10;99.90;;;;;;6212234;23;20034;-75
2023/07/29 04:25:55;;;;;;;4.85;3.67;;;19.10;99.90;;;;;;6213298;23;20370;-75
2023/07/29 04:28:21;;;;;;;6.43;4.15;;;19.00;99.90;;;;;;6212609;23;20013;-75
2023/07/29 04:30:47;;;;;;;7.65;4.22;;;19.00;99.90;;;;;;6213295;23;20004;-75
2023/07/29 04:33:12;;;;;;;4.00;3.30;;;19.00;99.90;;;;;;6212954;23;20015;-75
2023/07/29 04:35:38;;;;;;;4.85;3.40;;;18.90;99.90;;;;;;6213540;23;20005;-75
2023/07/29 04:38:03;;;;;;;3.28;2.65;;;18.90;99.90;;;;;;6212394;23;19996;-75
2023/07/29 04:40:29;;;;;;;5.97;2.72;;;18.90;99.90;;;;;;6213094;23;20504;-75
2023/07/29 04:42:55;;;;;;;4.10;2.80;;;18.90;99.90;;;;;;6212988;23;20741;-75
2023/07/29 04:45:20;;;;;;;6.72;3.28;;;18.90;99.90;;;;;;6212604;23;20007;-75
2023/07/29 04:47:46;;;;;;;4.30;3.05;;;18.90;99.90;;;;;;6213253;23;20005;-75
2023/07/29 04:50:11;;;;;;;3.10;2.47;;;18.90;99.90;;;;;;6212709;23;20004;-75
2023/07/29 04:52:37;;;;;;;3.60;2.85;;;18.90;99.90;;;;;;6212299;23;20086;-75
2023/07/29 04:55:02;;;;;;;3.13;2.30;;;18.90;99.90;;;;;;6186361;23;20518;-75
2023/07/29 04:57:29;;;;;;;3.88;2.47;;;18.90;99.90;;;;;;6212768;23;20076;-75
2023/07/29 04:59:54;;;;;;;3.13;2.45;;;18.90;99.90;;;;;;6213180;23;20005;-75
2023/07/29 05:02:20;;;;;;;4.32;2.38;;;19.00;99.90;;;;;;6212306;23;20312;-75
2023/07/29 05:04:46;;;;;;;5.18;2.45;;;19.00;99.90;;;;;;6213253;23;20000;-75
2023/07/29 05:07:12;;;;;;;3.45;2.83;;;19.00;99.90;;;;;;6211898;23;20003;-75
2023/07/29 05:09:37;;;;;;;2.47;2.22;;;19.10;99.90;;;;;;6212918;23;20004;-75
2023/07/29 05:12:03;;;;;;;7.95;3.28;;;19.00;99.90;;;;;;6212487;23;20004;-75
2023/07/29 05:14:29;;;;;;;3.03;2.72;;;19.10;99.90;;;;;;6212923;23;20377;-75
2023/07/29 05:16:54;;;;;;;3.08;2.70;;;19.10;99.90;;;;;;6213123;23;20373;-75
2023/07/29 05:19:20;;;;;;;4.05;2.15;;;19.10;99.90;;;;;;6185879;23;20069;-75
2023/07/29 05:21:45;;;;;;;4.18;2.60;;;19.20;99.90;;;;;;6212417;23;20001;-75
2023/07/29 05:24:11;;;;;;;2.45;2.17;;;19.20;99.90;;;;;;6212637;23;20011;-75
2023/07/29 05:26:37;;;;;;;4.57;2.53;;;19.20;99.90;;;;;;6212787;23;20407;-75
2023/07/29 05:29:03;;;;;;;3.33;2.40;;;19.30;99.90;;;;;;6212653;23;20005;-75
2023/07/29 05:31:29;;;;;;;4.90;2.72;;;19.30;99.90;;;;;;6212538;23;20005;-75
2023/07/29 05:33:55;;;;;;;2.63;1.95;;;19.30;99.90;;;;;;6212880;23;20028;-75
2023/07/29 05:36:20;;;;;;;2.60;2.25;;;19.30;99.90;;;;;;6211624;23;19996;-75
2023/07/29 05:38:46;;;;;;;2.88;2.17;;;19.30;99.90;;;;;;6212851;23;20304;-75
2023/07/29 05:41:11;;;;;;;2.60;2.20;;;19.40;99.90;;;;;;6185401;23;20072;-75
2023/07/29 05:43:37;;;;;;;3.72;2.78;;;19.40;99.90;;;;;;6212699;23;20011;-75
2023/07/29 05:46:02;;;;;;;4.03;3.60;;;19.30;99.90;;;;;;6212232;23;20055;-75
2023/07/29 05:48:28;;;;;;;4.75;3.42;;;19.40;99.90;;;;;;6212736;23;20011;-75
2023/07/29 05:50:54;;;;;;;4.60;3.25;;;19.30;99.90;;;;;;6211864;23;20055;-75
2023/07/29 05:53:19;;;;;;;5.53;3.60;;;19.40;99.90;;;;;;6211764;23;20023;-75
2023/07/29 05:55:45;;;;;;;3.72;3.35;;;19.40;99.90;;;;;;6212556;23;20001;-75
2023/07/29 05:58:10;;;;;;;4.20;3.78;;;19.40;99.90;;;;;;6211963;23;20027;-75
2023/07/29 06:00:36;;;;;;;7.05;3.97;;;19.50;99.90;;;;;;6212511;23;20036;-75
2023/07/29 06:03:02;;;;;;;5.65;3.50;;;19.50;99.90;;;;;;6212572;23;19997;-74
2023/07/29 06:05:27;;;;;;;6.88;4.80;;;19.60;99.90;;;;;;6212027;23;20470;-77
2023/07/29 06:07:53;;;;;;;4.78;3.53;;;19.70;99.90;;;;;;6212640;23;20027;-75
2023/07/29 06:10:19;;;;;;;6.95;3.83;;;19.70;99.90;;;;;;6211655;23;20003;-75
2023/07/29 06:12:48;;;;;;;4.72;4.25;;;19.70;99.90;;;;;;6212587;23;20001;-75
2023/07/29 06:15:13;;;;;;;6.65;4.50;;;19.70;99.90;;;;;;6211810;23;20008;-75
2023/07/29 06:17:40;;;;;;;5.90;3.92;;;19.80;99.90;;;;;;6212124;23;20000;-76
2023/07/29 06:20:06;;;;;;;6.82;3.97;;;19.90;99.90;;;;;;6210849;23;20525;-75
2023/07/29 06:22:32;;;;;;;5.78;4.30;;;20.00;99.90;;;;;;6211669;23;20055;-75
2023/07/29 06:24:58;;;;;;;5.05;4.38;;;20.10;99.90;;;;;;6212177;23;20004;-76
2023/07/29 06:27:25;;;;;;;7.30;4.72;;;20.10;99.90;;;;;;6211980;23;20043;-75
2023/07/29 06:29:51;;;;;;;5.78;4.07;;;20.20;99.90;;;;;;6212570;23;20083;-75
2023/07/29 06:32:16;;;;;;;4.95;4.00;;;20.30;99.90;;;;;;6211757;23;20098;-75
2023/07/29 06:34:42;;;;;;;6.47;4.13;;;20.30;99.90;;;;;;6211994;23;20005;-75
2023/07/29 06:37:07;;;;;;;6.22;3.50;;;20.40;99.90;;;;;;6211918;23;20060;-75
2023/07/29 06:39:33;;;;;;;6.35;4.30;;;20.40;99.90;;;;;;6212110;23;20040;-75
2023/07/29 06:41:58;;;;;;;7.97;5.18;;;20.50;99.90;;;;;;6212038;23;20020;-75
2023/07/29 06:44:24;;;;;;;6.10;3.72;;;20.50;99.90;;;;;;6211740;23;20036;-75
2023/07/29 06:46:49;;;;;;;4.38;3.65;;;20.50;99.90;;;;;;6211899;23;20433;-75
2023/07/29 06:49:15;;;;;;;5.05;4.40;;;20.50;99.90;;;;;;6211117;23;20335;-75
2023/07/29 06:51:40;;;;;;;5.95;4.47;;;20.50;99.90;;;;;;6212341;23;20088;-75
2023/07/29 06:54:06;;;;;;;6.88;4.93;;;20.60;99.90;;;;;;6211159;23;20063;-75
2023/07/29 06:56:32;;;;;;;4.80;3.90;;;20.70;99.90;;;;;;6211879;23;20043;-74
2023/07/29 06:58:57;;;;;;;6.70;4.55;;;20.70;99.90;;;;;;6212189;23;20001;-74
2023/07/29 07:01:23;;;;;;;5.43;4.82;;;20.80;99.90;;;;;;6211456;23;20017;-74
2023/07/29 07:03:48;;;;;;;6.28;4.78;;;20.80;99.90;;;;;;6211313;23;20048;-75
2023/07/29 07:06:14;;;;;;;5.30;4.60;;;20.90;99.90;;;;;;6211358;23;20004;-75
2023/07/29 07:08:40;;;;;;;5.45;4.07;;;20.90;99.90;;;;;;6211880;23;20051;-75
2023/07/29 07:11:06;;;;;;;6.05;4.82;;;20.80;99.90;;;;;;6211688;23;20004;-75
2023/07/29 07:13:31;;;;;;;5.68;4.45;;;20.90;99.90;;;;;;6211747;23;20063;-75
2023/07/29 07:15:57;;;;;;;5.38;4.55;;;20.80;99.90;;;;;;6185321;23;20305;-75
2023/07/29 07:18:23;;;;;;;8.55;5.95;;;20.90;99.90;;;;;;6211139;23;20000;-75
2023/07/29 07:20:49;;;;;;;5.82;5.05;;;21.00;99.90;;;;;;6212123;23;20001;-75
2023/07/29 07:23:15;;;;;;;6.70;5.30;;;21.10;99.90;;;;;;6211576;23;20811;-75
2023/07/29 07:25:42;;;;;;;7.38;5.25;;;21.30;99.90;;;;;;6212075;23;20005;-75
2023/07/29 07:28:08;;;;;;;6.70;5.95;;;21.40;99.90;;;;;;6211489;23;20004;-75
2023/07/29 07:30:34;;;;;;;6.70;5.40;;;21.60;99.90;;;;;;6211620;23;20012;-75
2023/07/29 07:33:00;;;;;;;5.32;4.82;;;21.70;99.90;;;;;;6211036;23;20007;-75
2023/07/29 07:35:26;;;;;;;7.45;5.80;;;21.70;99.90;;;;;;6184796;23;20001;-75
2023/07/29 07:37:52;;;;;;;6.43;5.22;;;21.80;99.90;;;;;;6211749;23;20000;-75
2023/07/29 07:40:17;;;;;;;6.57;5.50;;;21.90;99.90;;;;;;6211023;23;20323;-75
2023/07/29 07:42:43;;;;;;;6.88;6.18;;;22.00;99.90;;;;;;6211600;23;20011;-75
2023/07/29 07:45:08;;;;;;;6.95;5.93;;;22.10;99.90;;;;;;6211433;23;20538;-75
2023/07/29 07:47:34;;;;;;;6.65;6.05;;;22.10;99.90;;;;;;6210696;23;20445;-75
2023/07/29 07:49:59;;;;;;;6.57;5.70;;;22.20;99.90;;;;;;6211358;23;20005;-75
2023/07/29 07:52:25;;;;;;;5.43;4.93;;;22.20;99.90;;;;;;6210685;23;20016;-74
2023/07/29 07:54:54;;;;;;;5.97;5.28;;;22.20;99.90;;;;;;6211734;23;20004;-74
2023/07/29 07:57:22;;;;;;;5.85;5.30;;;22.20;99.90;;;;;;6211297;23;20089;-74
2023/07/29 07:59:48;;;;;;;5.15;4.68;;;22.30;99.90;;;;;;6213491;23;20120;-74
2023/07/29 08:02:14;;;;;;;5.88;5.38;;;22.30;99.90;;;;;;6212300;23;20001;-74
2023/07/29 08:04:39;;;;;;;4.50;3.80;;;22.30;99.90;;;;;;6213601;23;20011;-74
2023/07/29 08:07:05;;;;;;;4.93;4.35;;;22.20;99.80;;;;;;6213496;23;20492;-75
2023/07/29 08:09:31;;;;;;;3.83;3.42;;;22.10;99.80;;;;;;6213377;23;20373;-74
2023/07/29 08:11:56;;;;;;;4.22;3.72;;;22.10;99.90;;;;;;6186365;23;20011;-74
2023/07/29 08:14:22;;;;;;;5.95;3.75;;;22.00;99.90;;;;;;6213171;23;20058;-75
2023/07/29 08:16:47;;;;;;;5.82;3.72;;;22.10;99.90;;;;;;6212596;23;20008;-75
2023/07/29 08:19:13;;;;;;;4.50;3.92;;;22.20;99.90;;;;;;6212986;23;20426;-75
2023/07/29 08:21:39;;;;;;;5.43;3.95;;;22.30;99.90;;;;;;6213006;23;20055;-74
2023/07/29 08:24:04;;;;;;;4.38;3.28;;;22.30;99.80;;;;;;6213122;23;20308;-76
2023/07/29 08:26:30;;;;;;;3.38;3.08;;;22.40;99.80;;;;;;6213316;23;20050;-75
2023/07/29 08:28:55;;;;;;;4.00;2.70;;;22.50;99.90;;;;;;6212290;23;19996;-76
2023/07/29 08:31:21;;;;;;;4.25;2.58;;;22.50;99.50;;;;;;6184968;23;20012;-75
2023/07/29 08:33:46;;;;;;;3.42;2.60;;;22.50;99.40;;;;;;6213130;23;20418;-75
2023/07/29 08:36:12;;;;;;;4.07;2.80;;;22.40;99.40;;;;;;6213010;23;20410;-75
2023/07/29 08:38:38;;;;;;;5.88;3.40;;;22.30;99.30;;;;;;6212824;23;20019;-75
2023/07/29 08:41:09;;;;;;;4.35;2.63;;;22.30;99.50;;;;;;6212780;23;20017;-75
2023/07/29 08:43:38;;;;;;;3.42;2.20;;;22.30;99.50;;;;;;6212880;23;20072;-75
2023/07/29 08:46:04;;;;;;;3.00;2.15;;;22.30;99.50;;;;;;6212364;23;20090;-75
2023/07/29 08:48:50;;;;;;;3.83;2.60;;;22.40;99.60;;;;;;6212756;23;20011;-74
2023/07/29 08:51:17;;;;;;;2.85;2.38;;;22.50;99.50;;;;;;6212231;23;20015;-75
2023/07/29 08:53:43;;;;;;;2.97;2.50;;;22.70;99.30;;;;;;6212577;23;20055;-75
2023/07/29 08:56:09;;;;;;;2.55;2.00;;;22.90;99.10;;;;;;6211895;23;20422;-75
2023/07/29 08:58:36;;;;;;;4.72;2.58;;;23.00;98.70;;;;;;6211841;23;20028;-75
2023/07/29 09:01:01;;;;;;;3.75;1.95;;;23.10;98.40;;;;;;6211196;23;20000;-75
2023/07/29 09:03:27;;;;;;;2.50;1.80;;;23.00;98.10;;;;;;6186116;23;20015;-76
2023/07/29 09:05:54;;;;;;;3.00;2.30;;;23.00;98.20;;;;;;6212470;23;20008;-75
2023/07/29 09:08:21;;;;;;;3.75;1.92;;;23.00;98.10;;;;;;6212028;23;20492;-75
2023/07/29 09:10:46;;;;;;;3.35;1.77;;;23.00;98.00;;;;;;6212202;23;20114;-75
2023/07/29 09:13:12;;;;;;;2.28;1.98;;;22.90;97.80;;;;;;6212290;23;20005;-75
2023/07/29 09:15:38;;;;;;;2.67;2.30;;;22.90;97.90;;;;;;6212013;23;20328;-75
2023/07/29 09:18:14;;;;;;;6.47;1.88;;;22.80;97.80;;;;;;6185379;23;20008;-75
2023/07/29 09:20:39;;;;;;;3.20;2.78;;;22.80;97.80;;;;;;6212677;23;20091;-75
2023/07/29 09:23:10;;;;;;;2.70;2.30;;;22.70;97.60;;;;;;6185655;23;20047;-75
2023/07/29 09:25:36;;;;;;;4.43;2.25;;;22.70;97.60;;;;;;6213024;23;20334;-75
2023/07/29 09:28:08;;;;;;;2.45;1.52;;;22.70;97.70;;;;;;6211688;23;20005;-75
2023/07/29 09:30:33;;;;;;;2.03;1.40;;;22.80;97.90;;;;;;6212366;23;20115;-75
2023/07/29 09:32:59;;;;;;;1.77;1.45;;;22.90;97.70;;;;;;6212216;23;20427;-75
2023/07/29 09:35:30;;;;;;;2.33;1.70;;;23.00;97.60;;;;;;6212337;23;20377;-75
2023/07/29 09:37:56;;;;;;;2.88;1.65;;;23.10;97.30;;;;;;6212196;23;20047;-75
2023/07/29 09:40:21;;;;;;;2.58;1.20;;;23.10;97.20;;;;;;6212152;23;20000;-75
2023/07/29 09:42:51;;;;;;;3.38;1.60;;;23.10;97.20;;;;;;6212150;23;20000;-75
2023/07/29 09:45:21;;;;;;;3.83;1.75;;;23.20;97.20;;;;;;6211965;23;20004;-75
2023/07/29 09:47:47;;;;;;;1.65;1.45;;;23.10;97.00;;;;;;6212478;23;20004;-75
2023/07/29 09:50:12;;;;;;;2.00;1.50;;;23.10;97.20;;;;;;6212364;23;20004;-75
2023/07/29 09:52:38;;;;;;;4.68;1.80;;;23.10;97.40;;;;;;6212103;23;20342;-74
2023/07/29 09:55:06;;;;;;;2.20;1.70;;;23.10;97.40;;;;;;6212164;23;20032;-74
2023/07/29 09:57:32;;;;;;;1.95;1.50;;;23.10;97.40;;;;;;6211345;23;20004;-75
2023/07/29 09:59:58;;;;;;;4.03;2.25;;;23.20;97.30;;;;;;6212331;23;20043;-75
2023/07/29 10:02:25;;;;;;;2.35;2.03;;;23.30;97.30;;;;;;6211717;23;20016;-75
2023/07/29 10:04:52;;;;;;;2.60;1.40;;;23.40;97.20;;;;;;6212012;23;20001;-74
2023/07/29 10:07:18;;;;;;;1.88;1.20;;;23.50;97.10;;;;;;6211346;23;20008;-74
2023/07/29 10:09:46;;;;;;;2.35;1.33;;;23.70;96.80;;;;;;6212457;23;20001;-74
2023/07/29 10:12:12;;;;;;;2.13;1.20;;;23.80;96.40;;;;;;6210847;23;20766;-74
2023/07/29 10:14:38;;;;;;;2.50;1.20;;;24.00;96.20;;;;;;6184732;23;20000;-74
2023/07/29 10:17:05;;;;;;;1.80;1.08;;;24.20;96.00;;;;;;6211436;23;20059;-74
2023/07/29 10:19:31;;;;;;;2.83;1.30;;;24.40;95.80;;;;;;6212176;23;20304;-74
2023/07/29 10:22:01;;;;;;;1.65;1.30;;;24.70;95.90;;;;;;6212022;23;20055;-74
2023/07/29 10:24:30;;;;;;;5.10;1.33;;;24.90;95.20;;;;;;6185436;23;20453;-74
2023/07/29 10:26:59;;;;;;;2.90;1.13;;;25.00;94.90;;;;;;6211599;23;20086;-74
2023/07/29 10:29:30;;;;;;;2.05;1.50;;;25.10;94.60;;;;;;6212001;23;20075;-73
2023/07/29 10:31:57;;;;;;;1.60;1.30;;;25.00;94.40;;;;;;6212082;23;20438;-74
2023/07/29 10:34:24;;;;;;;3.90;1.77;;;24.90;94.50;;;;;;6212092;23;20051;-74
2023/07/29 10:36:50;;;;;;;3.25;1.48;;;24.90;94.70;;;;;;6212176;23;20326;-74
2023/07/29 10:39:15;;;;;;;2.25;1.85;;;24.90;95.10;;;;;;6211546;23;20008;-73
2023/07/29 10:42:07;;;;;;;2.30;1.75;;;25.00;94.70;;;;;;6211565;23;20001;-74
2023/07/29 10:44:49;;;;;;;4.70;1.77;;;25.10;94.60;;;;;;6205164;23;20004;-74
2023/07/29 10:47:16;;;;;;;3.85;2.00;;;25.20;94.30;;;;;;6211656;23;20460;-74
2023/07/29 10:49:42;;;;;;;2.33;2.00;;;25.20;94.30;;;;;;6211944;23;20469;-74
2023/07/29 10:52:08;;;;;;;4.60;2.00;;;25.30;94.10;;;;;;6211868;23;20398;-74
2023/07/29 10:54:47;;;;;;;3.53;2.00;;;25.30;94.10;;;;;;6211151;23;20020;-74
2023/07/29 10:57:34;;;;;;;2.83;1.88;;;25.20;93.80;;;;;;6210857;23;20054;-74
2023/07/29 11:00:00;;;;;;;3.45;2.72;;;25.20;93.90;;;;;;6211944;23;20026;-74
2023/07/29 11:02:31;;;;;;;1.73;1.48;;;25.20;93.90;;;;;;6211806;23;20326;-74
2023/07/29 11:04:57;;;;;;;3.08;1.27;;;25.20;93.70;;;;;;6212081;23;20323;-74
2023/07/29 11:07:26;;;;;;;2.78;1.55;;;25.20;93.60;;;;;;6211239;23;20193;-74
2023/07/29 11:09:53;;;;;;;2.65;1.50;;;25.30;93.60;;;;;;6211220;23;20414;-74
2023/07/29 11:12:39;;;;;;;3.85;1.40;;;25.30;93.50;;;;;;6211091;23;20005;-74
2023/07/29 11:15:11;;;;;;;2.08;1.55;;;25.40;93.30;;;;;;6211416;23;20051;-74
2023/07/29 11:17:48;;;;;;;2.05;1.25;;;25.20;93.00;;;;;;6211377;23;20852;-74
2023/07/29 11:20:15;;;;;;;2.10;1.50;;;25.10;92.80;;;;;;6211311;23;20008;-74
2023/07/29 11:22:41;;;;;;;2.55;1.20;;;24.80;92.90;;;;;;6211483;23;20005;-74
2023/07/29 11:25:09;;;;;;;1.17;1.08;;;24.60;93.30;;;;;;6184353;23;20001;-74
2023/07/29 11:27:35;;;;;;;2.80;1.25;;;24.50;93.50;;;;;;6211698;23;20441;-74
2023/07/29 11:30:05;;;;;;;1.45;1.35;;;24.40;93.80;;;;;;6211821;23;20004;-74
2023/07/29 11:32:30;;;;;;;1.75;0.95;;;24.30;93.90;;;;;;6212164;23;20008;-74
2023/07/29 11:34:56;;;;;;;1.45;1.25;;;24.30;93.90;;;;;;6213920;23;20082;-74
2023/07/29 11:37:22;;;;;;;1.60;1.05;;;24.20;93.80;;;;;;6213487;23;20016;-75
2023/07/29 11:39:47;;;;;;;1.48;0.90;;;24.10;93.90;;;;;;6213076;23;20001;-75
2023/07/29 11:42:14;;;;;;;2.10;1.40;;;24.00;93.90;;;;;;6213241;23;20083;-75
2023/07/29 11:44:40;;;;;;;2.50;1.40;;;23.90;94.00;;;;;;6213741;23;20001;-74
2023/07/29 11:47:07;;;;;;;3.40;1.25;;;23.80;94.20;;;;;;6213435;23;20009;-74
2023/07/29 11:49:39;;;;;;;2.05;1.27;;;23.60;94.40;;;;;;6213250;23;20161;-75
2023/07/29 11:52:08;;;;;;;3.33;1.98;;;23.50;94.70;;;;;;6212751;23;20009;-75
2023/07/29 11:54:36;;;;;;;3.75;1.38;;;23.30;95.60;;;;;;6212636;23;20081;-75
2023/07/29 11:57:01;;;;;;;4.25;1.83;;;23.10;96.20;;;;;;6212830;23;20001;-75
2023/07/29 11:59:28;;;;;;;2.53;1.38;;;22.80;96.70;;;;;;6186481;23;20091;-75
2023/07/29 12:01:54;;;;;;;1.77;1.00;;;22.60;97.20;;;;;;6213819;23;20304;-75
2023/07/29 12:04:20;;;;;;;2.03;1.17;;;22.40;97.50;;;;;;6213153;23;20000;-75
2023/07/29 12:06:46;;;;;;;3.28;1.27;;;22.20;98.00;;;;;;6187002;23;20012;-75
2023/07/29 12:09:13;;;;;;;2.33;1.17;;;22.10;98.30;;;;;;6212359;23;20012;-75
2023/07/29 12:11:39;;;;;;;3.50;1.48;;;22.00;98.60;;;;;;6213586;23;20098;-75
2023/07/29 12:14:08;;;;;;;4.85;1.33;;;21.90;98.90;;;;;;6213365;23;20071;-75
2023/07/29 12:16:41;;;;;;;3.35;1.48;;;21.70;99.30;;;;;;6213338;23;20629;-75
2023/07/29 12:19:07;;;;;;;3.83;1.27;;;21.70;99.70;;;;;;6212515;23;20008;-75
2023/07/29 12:21:33;;;;;;;1.75;1.25;;;21.70;99.90;;;;;;6213368;23;20008;-75
2023/07/29 12:23:58;;;;;;;2.03;1.38;;;21.80;99.90;;;;;;6212854;23;20001;-75
2023/07/29 12:26:28;;;;;;;2.35;1.58;;;21.90;99.90;;;;;;6211368;23;20036;-75
2023/07/29 12:28:53;;;;;;;1.40;1.23;;;22.10;99.90;;;;;;6213373;23;20104;-75
2023/07/29 12:31:19;;;;;;;1.90;1.00;;;22.20;99.90;;;;;;6212078;23;20048;-75
2023/07/29 12:33:45;;;;;;;3.15;1.15;;;22.30;99.90;;;;;;6213227;23;20012;-75
2023/07/29 12:36:11;;;;;;;4.00;1.00;;;22.30;99.90;;;;;;6212762;23;20001;-75
2023/07/29 12:38:37;;;;;;;1.25;0.90;;;22.40;99.90;;;;;;6212543;23;20323;-76
2023/07/29 12:41:02;;;;;;;3.40;0.85;;;22.40;99.90;;;;;;6212304;23;20047;-75
2023/07/29 12:43:28;;;;;;;1.73;1.13;;;22.50;99.90;;;;;;6212445;23;20484;-76